Time;durP1;ratioP1;P1;durP2;ratioP2;P2;SDS_P1;SDS_P2;PMS_P1;PMS_P2;Temp;Humidity;BMP_temperature;BMP_pressure;BME280_temperature;BME280_humidity;BME280_pressure;Samples;Min_cycle;Max_cycle;Signal;HPM_P1;HPM_P2
2023/12/14 00:00:22;;;;;;;7.78;2.30;;;6.40;99.90;;;;;;5064383;28;20053;-66
2023/12/14 00:02:48;;;;;;;6.60;2.13;;;6.40;99.90;;;;;;5076168;28;20063;-66
2023/12/14 00:05:15;;;;;;;9.55;2.10;;;6.40;99.90;;;;;;5071423;28;20102;-66
2023/12/14 00:07:43;;;;;;;9.07;2.30;;;6.40;99.90;;;;;;5067692;28;20044;-67
2023/12/14 00:10:10;;;;;;;5.75;2.33;;;6.40;99.90;;;;;;5063949;28;20518;-66
2023/12/14 00:12:37;;;;;;;8.30;2.72;;;6.40;99.90;;;;;;5063607;28;20060;-66
2023/12/14 00:15:04;;;;;;;11.32;2.33;;;6.40;99.90;;;;;;5063554;28;20129;-68
2023/12/14 00:17:31;;;;;;;7.20;2.67;;;6.30;99.90;;;;;;5052051;28;20055;-66
2023/12/14 00:19:58;;;;;;;5.20;2.40;;;6.40;99.90;;;;;;5067954;28;20041;-68
2023/12/14 00:22:25;;;;;;;4.95;2.33;;;6.40;99.90;;;;;;5059717;28;20099;-68
2023/12/14 00:24:51;;;;;;;8.85;2.33;;;6.40;99.90;;;;;;5061729;28;20059;-66
2023/12/14 00:27:18;;;;;;;6.93;2.30;;;6.30;99.90;;;;;;5065415;28;20052;-67
2023/12/14 00:29:45;;;;;;;6.43;2.58;;;6.40;99.90;;;;;;5065318;28;20102;-67
2023/12/14 00:32:12;;;;;;;9.27;2.75;;;6.40;99.90;;;;;;5069802;28;20057;-68
2023/12/14 00:34:40;;;;;;;11.10;2.47;;;6.30;99.90;;;;;;5077755;28;20044;-67
2023/12/14 00:37:07;;;;;;;6.90;2.30;;;6.30;99.90;;;;;;5069227;28;20064;-67
2023/12/14 00:39:33;;;;;;;4.13;1.70;;;6.30;99.90;;;;;;5068777;28;20117;-68
2023/12/14 00:42:00;;;;;;;7.88;2.42;;;6.30;99.90;;;;;;5066180;28;20217;-67
2023/12/14 00:44:27;;;;;;;8.35;2.00;;;6.30;99.90;;;;;;5073946;28;20044;-66
2023/12/14 00:46:54;;;;;;;11.68;2.67;;;6.30;99.90;;;;;;5066603;28;20052;-67
2023/12/14 00:49:21;;;;;;;6.10;1.90;;;6.30;99.90;;;;;;5070480;28;20123;-66
2023/12/14 00:51:48;;;;;;;8.98;2.08;;;6.30;99.90;;;;;;5066793;28;20802;-67
2023/12/14 00:54:14;;;;;;;10.57;2.25;;;6.30;99.90;;;;;;5056997;28;20049;-66
2023/12/14 00:56:41;;;;;;;10.30;2.67;;;6.30;99.90;;;;;;5068391;28;20044;-66
2023/12/14 00:59:08;;;;;;;7.60;2.45;;;6.30;99.90;;;;;;5067639;28;20079;-66
2023/12/14 01:01:35;;;;;;;6.80;2.70;;;6.40;99.90;;;;;;5075583;28;20052;-66
2023/12/14 01:04:02;;;;;;;8.93;1.77;;;6.30;99.90;;;;;;5076908;28;20067;-66
2023/12/14 01:06:29;;;;;;;13.00;2.35;;;6.30;99.90;;;;;;4716950;28;10000001;-67
2023/12/14 01:08:56;;;;;;;8.77;2.25;;;6.30;99.90;;;;;;5067735;28;20052;-66
2023/12/14 01:11:22;;;;;;;7.95;2.22;;;6.30;99.90;;;;;;5069714;28;20076;-66
2023/12/14 01:13:49;;;;;;;8.57;2.10;;;6.20;99.90;;;;;;5071058;28;20098;-66
2023/12/14 01:16:16;;;;;;;9.43;2.25;;;6.20;99.90;;;;;;5068109;28;20504;-66
2023/12/14 01:18:43;;;;;;;8.48;2.22;;;6.20;99.90;;;;;;5068549;28;20048;-66
2023/12/14 01:21:10;;;;;;;6.95;2.15;;;6.20;99.90;;;;;;5070003;28;20041;-67
2023/12/14 01:23:38;;;;;;;7.20;1.75;;;6.20;99.90;;;;;;5064475;28;20044;-66
2023/12/14 01:26:05;;;;;;;8.85;4.13;;;6.20;99.90;;;;;;5059158;28;20116;-67
2023/12/14 01:28:32;;;;;;;8.35;2.30;;;6.20;99.90;;;;;;5080950;28;20522;-66
2023/12/14 01:30:58;;;;;;;10.93;3.10;;;6.20;99.90;;;;;;5067953;28;20044;-67
2023/12/14 01:33:25;;;;;;;4.85;1.90;;;6.20;99.90;;;;;;5066093;28;20148;-66
2023/12/14 01:35:52;;;;;;;7.38;2.42;;;6.30;99.90;;;;;;5066170;28;20055;-67
2023/12/14 01:38:19;;;;;;;9.02;2.22;;;6.30;99.90;;;;;;5069578;28;20053;-67
2023/12/14 01:40:46;;;;;;;6.05;2.53;;;6.20;99.90;;;;;;5067785;28;20056;-68
2023/12/14 01:43:13;;;;;;;10.25;2.78;;;6.10;99.90;;;;;;5067192;28;20052;-68
2023/12/14 01:45:39;;;;;;;4.30;2.22;;;6.10;99.90;;;;;;5067802;28;20049;-68
2023/12/14 01:48:06;;;;;;;10.98;3.25;;;6.10;99.90;;;;;;5065591;28;20118;-67
2023/12/14 01:50:33;;;;;;;9.20;2.60;;;6.10;99.90;;;;;;5069523;28;20240;-67
2023/12/14 01:53:00;;;;;;;13.77;3.08;;;6.10;99.90;;;;;;5068510;28;20048;-67
2023/12/14 01:55:27;;;;;;;5.35;2.22;;;6.20;99.90;;;;;;5067786;28;20129;-68
2023/12/14 01:57:54;;;;;;;7.53;2.80;;;6.20;99.90;;;;;;5065502;28;20048;-68
2023/12/14 02:00:41;;;;;;;9.02;2.95;;;6.10;99.90;;;;;;5069954;28;20045;-67
2023/12/14 02:03:07;;;;;;;8.48;2.70;;;6.10;99.90;;;;;;5047867;28;20136;-67
2023/12/14 02:05:34;;;;;;;7.88;2.67;;;6.20;99.90;;;;;;5068692;28;20040;-67
2023/12/14 02:08:01;;;;;;;12.60;2.85;;;6.20;99.90;;;;;;5059640;28;20049;-68
2023/12/14 02:10:28;;;;;;;11.77;2.92;;;6.20;99.90;;;;;;5068332;28;20044;-67
2023/12/14 02:12:55;;;;;;;12.30;2.58;;;6.20;99.90;;;;;;5066879;28;20056;-68
2023/12/14 02:15:22;;;;;;;11.30;3.05;;;6.30;99.90;;;;;;5049182;28;20495;-66
2023/12/14 02:17:49;;;;;;;9.43;2.35;;;6.20;99.90;;;;;;5067092;28;20473;-68
2023/12/14 02:20:16;;;;;;;6.63;2.65;;;6.20;99.90;;;;;;5068715;28;20395;-67
2023/12/14 02:22:52;;;;;;;9.38;3.53;;;6.10;99.90;;;;;;5066121;28;20057;-67
2023/12/14 02:25:20;;;;;;;9.30;2.85;;;6.10;99.90;;;;;;5068259;28;20040;-67
2023/12/14 02:27:47;;;;;;;8.50;3.10;;;6.10;99.90;;;;;;5065609;28;20117;-68
2023/12/14 02:30:14;;;;;;;11.50;2.28;;;6.10;99.90;;;;;;5048945;28;20061;-71
2023/12/14 02:32:41;;;;;;;11.18;2.47;;;6.10;99.90;;;;;;5068077;28;20099;-67
2023/12/14 02:35:08;;;;;;;8.77;2.28;;;6.10;99.90;;;;;;5048990;28;20091;-68
2023/12/14 02:37:40;;;;;;;9.25;2.50;;;6.00;99.90;;;;;;5066833;28;20123;-66
2023/12/14 02:40:08;;;;;;;11.05;3.63;;;6.10;99.90;;;;;;5049022;28;20044;-65
2023/12/14 02:42:35;;;;;;;7.68;2.92;;;6.10;99.90;;;;;;5049884;28;20501;-66
2023/12/14 02:45:02;;;;;;;5.70;2.28;;;6.00;99.90;;;;;;5068600;28;20075;-66
2023/12/14 02:47:29;;;;;;;7.47;2.80;;;6.10;99.90;;;;;;5048608;28;20044;-66
2023/12/14 02:49:56;;;;;;;10.05;2.63;;;6.00;99.90;;;;;;5065970;28;20113;-66
2023/12/14 02:52:23;;;;;;;12.27;2.92;;;6.00;99.90;;;;;;5072539;28;20048;-66
2023/12/14 02:54:50;;;;;;;12.20;3.10;;;5.90;99.90;;;;;;5066380;28;20492;-67
2023/12/14 02:57:17;;;;;;;12.25;2.28;;;5.90;99.90;;;;;;5069955;28;20049;-66
2023/12/14 02:59:44;;;;;;;8.85;2.97;;;5.90;99.90;;;;;;5068930;28;20056;-66
2023/12/14 03:02:10;;;;;;;9.93;2.63;;;5.90;99.90;;;;;;5063234;28;20303;-67
2023/12/14 03:04:39;;;;;;;4.65;2.55;;;5.90;99.90;;;;;;5066803;28;20113;-66
2023/12/14 03:07:06;;;;;;;13.20;2.60;;;5.90;99.90;;;;;;5066679;28;20062;-67
2023/12/14 03:09:33;;;;;;;9.10;2.30;;;5.90;99.90;;;;;;5069523;28;20522;-66
2023/12/14 03:12:01;;;;;;;6.88;2.10;;;5.90;99.90;;;;;;5065821;28;20044;-66
2023/12/14 03:14:32;;;;;;;8.35;3.60;;;5.90;99.90;;;;;;5075996;28;20054;-67
2023/12/14 03:16:58;;;;;;;9.70;2.53;;;5.90;99.90;;;;;;5051041;28;20040;-66
2023/12/14 03:19:25;;;;;;;8.57;2.05;;;5.80;99.90;;;;;;5074866;28;20059;-67
2023/12/14 03:21:52;;;;;;;9.35;3.30;;;5.80;99.90;;;;;;5065473;28;20044;-66
2023/12/14 03:24:19;;;;;;;8.93;2.67;;;5.80;99.90;;;;;;5061713;28;20118;-67
2023/12/14 03:26:46;;;;;;;10.68;3.72;;;5.80;99.90;;;;;;5068405;28;20048;-67
2023/12/14 03:29:13;;;;;;;11.07;2.80;;;5.80;99.90;;;;;;5066463;28;20044;-67
2023/12/14 03:31:40;;;;;;;13.55;2.50;;;5.70;99.90;;;;;;5065605;28;20045;-67
2023/12/14 03:34:07;;;;;;;8.55;3.17;;;5.70;99.90;;;;;;5065752;28;20080;-67
2023/12/14 03:36:33;;;;;;;5.47;2.47;;;5.70;99.90;;;;;;5065925;28;20075;-66
2023/12/14 03:39:00;;;;;;;7.78;2.17;;;5.60;99.90;;;;;;5066001;28;20053;-67
2023/12/14 03:41:27;;;;;;;9.88;2.58;;;5.60;99.90;;;;;;5065333;28;20068;-67
2023/12/14 03:43:54;;;;;;;9.75;2.70;;;5.60;99.90;;;;;;5073023;28;20102;-66
2023/12/14 03:46:21;;;;;;;13.23;2.92;;;5.60;99.90;;;;;;5065445;28;20495;-67
2023/12/14 03:48:47;;;;;;;5.30;2.20;;;5.50;99.90;;;;;;5067777;28;20052;-65
2023/12/14 03:51:18;;;;;;;8.77;3.55;;;5.40;99.90;;;;;;5072687;28;20051;-66
2023/12/14 03:53:45;;;;;;;8.55;2.15;;;5.30;99.90;;;;;;5068349;28;20052;-66
2023/12/14 03:56:12;;;;;;;5.18;2.55;;;5.30;99.90;;;;;;5053672;28;20033;-67
2023/12/14 03:58:39;;;;;;;11.30;2.83;;;5.20;99.90;;;;;;5070309;28;20154;-67
2023/12/14 04:01:06;;;;;;;7.45;3.08;;;5.20;99.90;;;;;;5066031;28;20060;-67
2023/12/14 04:03:33;;;;;;;19.17;2.92;;;5.20;99.90;;;;;;5066472;28;20048;-67
2023/12/14 04:06:00;;;;;;;10.55;3.45;;;5.10;99.90;;;;;;5061892;28;20128;-67
2023/12/14 04:08:26;;;;;;;5.35;2.20;;;5.10;99.90;;;;;;5073055;28;20084;-68
2023/12/14 04:10:53;;;;;;;8.13;2.65;;;5.00;99.90;;;;;;5081838;28;20032;-66
2023/12/14 04:13:20;;;;;;;7.75;3.20;;;4.90;99.90;;;;;;5068325;28;20052;-67
2023/12/14 04:15:47;;;;;;;7.53;2.63;;;4.90;99.90;;;;;;5073464;28;20412;-67
2023/12/14 04:18:14;;;;;;;13.57;4.22;;;4.80;99.90;;;;;;5067213;28;20044;-67
2023/12/14 04:20:41;;;;;;;13.52;3.17;;;4.80;99.90;;;;;;5071285;28;20139;-67
2023/12/14 04:23:08;;;;;;;16.08;6.25;;;4.80;99.90;;;;;;5069549;28;20052;-67
2023/12/14 04:25:35;;;;;;;6.80;2.33;;;4.80;99.90;;;;;;5072187;28;20076;-66
2023/12/14 04:28:02;;;;;;;9.57;2.83;;;4.80;99.90;;;;;;5070242;28;20071;-67
2023/12/14 04:30:28;;;;;;;12.63;3.78;;;4.80;99.90;;;;;;5077925;28;20040;-67
2023/12/14 04:32:55;;;;;;;11.63;2.92;;;4.70;99.90;;;;;;5075384;28;20052;-67
2023/12/14 04:35:22;;;;;;;10.10;3.42;;;4.70;99.90;;;;;;5069442;28;20131;-67
2023/12/14 04:37:49;;;;;;;7.00;3.00;;;4.70;99.90;;;;;;5074656;28;20097;-67
2023/12/14 04:40:16;;;;;;;8.68;2.97;;;4.70;99.90;;;;;;5077588;28;20541;-67
2023/12/14 04:42:43;;;;;;;11.27;2.95;;;4.70;99.90;;;;;;5086902;28;20052;-67
2023/12/14 04:45:09;;;;;;;9.43;2.80;;;4.60;99.90;;;;;;5072160;28;20052;-66
2023/12/14 04:47:36;;;;;;;13.13;2.65;;;4.70;99.90;;;;;;5050593;28;20044;-66
2023/12/14 04:50:03;;;;;;;6.35;2.33;;;4.70;99.90;;;;;;5071088;28;20058;-67
2023/12/14 04:52:30;;;;;;;9.70;2.45;;;4.60;99.90;;;;;;5071587;28;20045;-66
2023/12/14 04:54:57;;;;;;;13.35;3.13;;;4.60;99.90;;;;;;5071342;28;20044;-67
2023/12/14 04:57:24;;;;;;;7.28;2.47;;;4.50;99.90;;;;;;5067888;28;20094;-67
2023/12/14 04:59:51;;;;;;;9.98;2.97;;;4.60;99.90;;;;;;5069558;28;20569;-66
2023/12/14 05:02:18;;;;;;;7.78;3.45;;;4.60;99.90;;;;;;5069600;28;20044;-66
2023/12/14 05:04:45;;;;;;;12.20;2.72;;;4.60;99.90;;;;;;5068883;28;20548;-67
2023/12/14 05:07:11;;;;;;;13.93;3.58;;;4.60;99.90;;;;;;5061044;28;20113;-67
2023/12/14 05:09:38;;;;;;;8.70;2.70;;;4.70;99.90;;;;;;5074154;28;20128;-67
2023/12/14 05:12:05;;;;;;;7.03;3.42;;;4.70;99.90;;;;;;5076657;28;20094;-67
2023/12/14 05:14:32;;;;;;;16.75;5.57;;;4.60;99.90;;;;;;5068424;28;20049;-67
2023/12/14 05:16:59;;;;;;;11.20;5.25;;;4.70;99.90;;;;;;5070346;28;20193;-66
2023/12/14 05:19:26;;;;;;;10.40;2.72;;;4.60;99.90;;;;;;5052622;28;20163;-67
2023/12/14 05:21:54;;;;;;;10.32;3.03;;;4.60;99.90;;;;;;5069007;28;20118;-67
2023/12/14 05:24:21;;;;;;;11.00;3.10;;;4.60;99.90;;;;;;5083324;28;20052;-67
2023/12/14 05:26:47;;;;;;;8.32;3.33;;;4.60;99.90;;;;;;5052590;28;20110;-66
2023/12/14 05:29:15;;;;;;;19.90;4.95;;;4.70;99.90;;;;;;5083762;28;20063;-67
2023/12/14 05:31:42;;;;;;;5.53;2.97;;;4.70;99.90;;;;;;5078994;28;20414;-67
2023/12/14 05:34:08;;;;;;;9.18;3.17;;;4.70;99.90;;;;;;5072863;28;20052;-67
2023/12/14 05:36:36;;;;;;;8.50;3.10;;;4.60;99.90;;;;;;5068553;28;20048;-67
2023/12/14 05:39:03;;;;;;;9.95;2.88;;;4.60;99.90;;;;;;5057775;28;20098;-67
2023/12/14 05:41:31;;;;;;;11.35;3.67;;;4.60;99.90;;;;;;5068444;28;20123;-66
2023/12/14 05:43:58;;;;;;;12.93;3.72;;;4.60;99.90;;;;;;5068657;28;20591;-66
2023/12/14 05:46:25;;;;;;;11.25;3.60;;;4.60;99.90;;;;;;5070768;28;20048;-66
2023/12/14 05:48:52;;;;;;;13.25;3.22;;;4.60;99.90;;;;;;5068490;28;20145;-66
2023/12/14 05:51:32;;;;;;;13.18;3.15;;;4.60;99.90;;;;;;5066703;28;20083;-67
2023/12/14 05:53:59;;;;;;;9.77;2.97;;;4.50;99.90;;;;;;5074508;28;20051;-66
2023/12/14 05:56:26;;;;;;;10.68;4.32;;;4.50;99.90;;;;;;5067801;28;20086;-67
2023/12/14 05:58:52;;;;;;;6.78;3.75;;;4.50;99.90;;;;;;5069314;28;20077;-67
2023/12/14 06:01:19;;;;;;;7.03;3.22;;;4.60;99.90;;;;;;5067798;28;20132;-67
2023/12/14 06:03:46;;;;;;;13.05;4.93;;;4.60;99.90;;;;;;5073618;28;20164;-67
2023/12/14 06:06:14;;;;;;;11.25;2.92;;;4.60;99.90;;;;;;5075201;28;20496;-67
2023/12/14 06:08:41;;;;;;;9.20;2.80;;;4.60;99.90;;;;;;5071003;28;20040;-67
2023/12/14 06:11:08;;;;;;;9.27;3.00;;;4.50;99.90;;;;;;5067244;28;20422;-67
2023/12/14 06:13:35;;;;;;;9.38;3.20;;;4.50;99.90;;;;;;5067785;28;20435;-67
2023/12/14 06:16:03;;;;;;;7.30;3.05;;;4.50;99.90;;;;;;5067537;28;20113;-66
2023/12/14 06:18:30;;;;;;;9.25;2.95;;;4.50;99.90;;;;;;5064691;28;20048;-67
2023/12/14 06:20:57;;;;;;;8.18;3.50;;;4.40;99.90;;;;;;5039116;28;20093;-67
2023/12/14 06:23:25;;;;;;;6.78;2.90;;;4.40;99.90;;;;;;5067078;28;20048;-67
2023/12/14 06:25:52;;;;;;;10.27;3.30;;;4.40;99.90;;;;;;5065954;28;20036;-68
2023/12/14 06:28:19;;;;;;;15.30;4.32;;;4.40;99.90;;;;;;5080533;28;20045;-67
2023/12/14 06:30:46;;;;;;;11.82;3.67;;;4.40;99.90;;;;;;5064467;28;20610;-67
2023/12/14 06:33:12;;;;;;;9.43;4.35;;;4.40;99.90;;;;;;5059012;28;20479;-68
2023/12/14 06:35:39;;;;;;;7.15;3.25;;;4.40;99.90;;;;;;5062869;28;20551;-67
2023/12/14 06:38:06;;;;;;;15.13;5.55;;;4.30;99.90;;;;;;5064051;28;20515;-68
2023/12/14 06:40:33;;;;;;;11.88;3.90;;;4.40;99.90;;;;;;5051611;28;20396;-67
2023/12/14 06:43:00;;;;;;;12.85;3.53;;;4.40;99.90;;;;;;5064376;28;20070;-68
2023/12/14 06:45:27;;;;;;;20.00;4.38;;;4.50;99.90;;;;;;5062224;28;20169;-68
2023/12/14 06:47:54;;;;;;;10.98;3.97;;;4.40;99.90;;;;;;5063071;28;20044;-67
2023/12/14 06:50:20;;;;;;;14.70;3.58;;;4.40;99.90;;;;;;5050381;28;20052;-67
2023/12/14 06:52:47;;;;;;;10.43;3.15;;;4.40;99.90;;;;;;5067355;28;20484;-68
2023/12/14 06:55:14;;;;;;;13.10;3.67;;;4.40;99.90;;;;;;5083677;28;20048;-67
2023/12/14 06:57:43;;;;;;;8.52;2.92;;;4.40;99.90;;;;;;5067655;28;20055;-68
2023/12/14 07:00:11;;;;;;;10.50;3.50;;;4.30;99.90;;;;;;5069856;28;20052;-67
2023/12/14 07:02:38;;;;;;;10.90;5.13;;;4.20;99.90;;;;;;5051049;28;20052;-66
2023/12/14 07:05:05;;;;;;;9.70;3.35;;;4.30;99.90;;;;;;5060098;28;20041;-68
2023/12/14 07:07:32;;;;;;;14.77;4.47;;;4.20;99.90;;;;;;4712389;28;10000515;-68
2023/12/14 07:09:59;;;;;;;14.40;4.25;;;4.30;99.90;;;;;;5065378;28;20091;-68
2023/12/14 07:12:26;;;;;;;12.35;5.43;;;4.40;99.90;;;;;;5062842;28;20090;-68
2023/12/14 07:14:53;;;;;;;15.10;4.65;;;4.50;99.90;;;;;;5061606;28;20049;-68
2023/12/14 07:17:19;;;;;;;12.65;3.22;;;4.40;99.90;;;;;;5063348;28;20036;-67
2023/12/14 07:19:47;;;;;;;14.80;3.38;;;4.50;99.90;;;;;;5067180;28;20083;-67
2023/12/14 07:22:13;;;;;;;15.18;3.72;;;4.40;99.90;;;;;;5066337;28;20047;-67
2023/12/14 07:24:40;;;;;;;10.88;3.80;;;4.40;99.90;;;;;;5067658;28;20045;-67
2023/12/14 07:27:18;;;;;;;12.52;3.88;;;4.50;99.90;;;;;;5056440;28;20056;-67
2023/12/14 07:29:45;;;;;;;9.98;3.13;;;4.50;99.90;;;;;;5048904;28;20449;-67
2023/12/14 07:32:12;;;;;;;8.20;2.90;;;4.50;99.90;;;;;;5061770;28;20487;-67
2023/12/14 07:34:39;;;;;;;9.40;3.50;;;4.50;99.90;;;;;;5047228;28;20372;-66
2023/12/14 07:37:06;;;;;;;8.90;3.10;;;4.60;99.90;;;;;;5075330;28;20122;-65
2023/12/14 07:39:33;;;;;;;6.68;3.30;;;4.50;99.90;;;;;;5069324;28;20059;-64
2023/12/14 07:42:00;;;;;;;10.88;3.25;;;4.60;99.90;;;;;;5077952;28;20040;-63
2023/12/14 07:44:29;;;;;;;7.63;3.58;;;4.50;99.90;;;;;;5064010;28;20284;-64
2023/12/14 07:46:59;;;;;;;8.88;3.50;;;4.60;99.90;;;;;;5073653;28;20047;-64
2023/12/14 07:49:26;;;;;;;12.27;3.65;;;4.60;99.90;;;;;;5028919;28;20078;-64
2023/12/14 07:51:53;;;;;;;9.73;3.75;;;4.60;99.90;;;;;;5067917;28;20483;-64
2023/12/14 07:54:20;;;;;;;12.10;3.30;;;4.60;99.90;;;;;;5072238;28;20048;-63
2023/12/14 07:56:48;;;;;;;9.57;3.58;;;4.70;99.90;;;;;;5068627;28;20123;-64
2023/12/14 07:59:14;;;;;;;15.65;3.92;;;4.70;99.90;;;;;;5064304;28;20505;-63
2023/12/14 08:01:41;;;;;;;11.05;3.33;;;4.70;99.90;;;;;;5061667;28;20045;-64
2023/12/14 08:04:11;;;;;;;11.57;3.85;;;4.70;99.90;;;;;;5043581;28;20486;-63
2023/12/14 08:06:41;;;;;;;8.13;3.38;;;4.60;99.90;;;;;;5076360;28;21306;-63
2023/12/14 08:09:08;;;;;;;13.00;4.53;;;4.60;99.90;;;;;;5072575;28;20166;-64
2023/12/14 08:11:35;;;;;;;9.30;3.70;;;4.60;99.90;;;;;;5069725;28;20074;-63
2023/12/14 08:14:02;;;;;;;9.30;3.42;;;4.60;99.90;;;;;;5070213;28;20057;-62
2023/12/14 08:16:30;;;;;;;11.18;3.60;;;4.60;99.90;;;;;;5050544;28;20054;-63
2023/12/14 08:18:56;;;;;;;12.77;3.83;;;4.60;99.90;;;;;;5058171;28;20049;-62
2023/12/14 08:21:23;;;;;;;11.02;3.58;;;4.70;99.90;;;;;;5066594;28;20328;-62
2023/12/14 08:23:50;;;;;;;8.07;2.80;;;4.60;99.90;;;;;;5060335;28;20531;-62
2023/12/14 08:26:17;;;;;;;8.70;3.60;;;4.70;99.90;;;;;;5048775;28;20122;-63
2023/12/14 08:28:44;;;;;;;11.68;3.15;;;4.70;99.90;;;;;;5058233;28;20167;-63
2023/12/14 08:31:12;;;;;;;14.02;4.22;;;4.70;99.90;;;;;;5070803;28;20044;-63
2023/12/14 08:33:41;;;;;;;8.65;3.08;;;4.80;99.90;;;;;;5070286;28;20048;-63
2023/12/14 08:36:10;;;;;;;9.20;2.80;;;4.80;99.90;;;;;;5066600;28;20114;-63
2023/12/14 08:38:37;;;;;;;11.60;3.78;;;4.80;99.90;;;;;;5068952;28;20114;-63
2023/12/14 08:41:04;;;;;;;4.50;2.30;;;4.80;99.90;;;;;;5072016;28;20086;-63
2023/12/14 08:43:31;;;;;;;11.35;2.88;;;4.80;99.90;;;;;;5069004;28;20483;-62
2023/12/14 08:45:57;;;;;;;16.65;5.93;;;4.80;99.90;;;;;;5071914;28;20561;-63
2023/12/14 08:48:24;;;;;;;12.18;3.00;;;4.90;99.90;;;;;;5076518;28;20044;-63
2023/12/14 08:50:54;;;;;;;9.68;3.10;;;4.80;99.90;;;;;;5060726;28;20055;-63
2023/12/14 08:53:20;;;;;;;10.43;3.15;;;4.90;99.90;;;;;;5069303;28;20044;-63
2023/12/14 08:55:47;;;;;;;9.98;3.13;;;4.80;99.90;;;;;;5070021;28;20056;-63
2023/12/14 08:58:14;;;;;;;14.63;3.40;;;4.90;99.90;;;;;;5064754;28;20047;-64
2023/12/14 09:00:41;;;;;;;8.90;2.72;;;4.90;99.90;;;;;;5068515;28;20341;-63
2023/12/14 09:03:09;;;;;;;8.88;2.40;;;4.90;99.90;;;;;;5067460;28;20135;-62
2023/12/14 09:05:36;;;;;;;16.23;4.32;;;4.90;99.90;;;;;;5062223;28;20045;-63
2023/12/14 09:08:04;;;;;;;5.82;2.60;;;5.00;99.90;;;;;;5067272;28;20053;-63
2023/12/14 09:10:30;;;;;;;18.10;3.53;;;5.00;99.90;;;;;;5065885;28;20464;-63
2023/12/14 09:12:57;;;;;;;13.30;3.85;;;5.00;99.90;;;;;;4711502;28;10000013;-63
2023/12/14 09:15:24;;;;;;;9.88;2.40;;;5.10;99.90;;;;;;5046054;28;20048;-62
2023/12/14 09:17:51;;;;;;;12.30;2.75;;;5.00;99.90;;;;;;5066719;28;20072;-63
2023/12/14 09:20:19;;;;;;;8.57;2.45;;;5.00;99.90;;;;;;5060280;28;20055;-62
2023/12/14 09:22:46;;;;;;;13.00;3.13;;;5.00;99.90;;;;;;5064289;28;20461;-62
2023/12/14 09:25:13;;;;;;;5.05;2.15;;;5.00;99.90;;;;;;5077091;28;20045;-63
2023/12/14 09:27:40;;;;;;;5.80;2.53;;;5.10;99.90;;;;;;5050740;28;20474;-62
2023/12/14 09:30:07;;;;;;;10.55;2.58;;;5.20;99.90;;;;;;5070627;28;20098;-63
2023/12/14 09:32:34;;;;;;;5.93;2.40;;;5.20;99.90;;;;;;5065840;28;20070;-63
2023/12/14 09:35:01;;;;;;;6.95;2.85;;;5.30;99.90;;;;;;5047549;28;20408;-62
2023/12/14 09:37:28;;;;;;;8.90;2.42;;;5.30;99.90;;;;;;5068609;28;20040;-63
2023/12/14 09:39:55;;;;;;;8.10;2.90;;;5.30;99.90;;;;;;5066211;28;20564;-62
2023/12/14 09:42:22;;;;;;;16.50;2.85;;;5.40;99.90;;;;;;5061058;28;20040;-62
2023/12/14 09:44:49;;;;;;;9.25;2.58;;;5.40;99.90;;;;;;5058289;28;20099;-62
2023/12/14 09:47:16;;;;;;;6.20;2.42;;;5.40;99.90;;;;;;5041640;28;20052;-62
2023/12/14 09:49:44;;;;;;;4.00;1.88;;;5.50;99.90;;;;;;5042491;28;20060;-62
2023/12/14 09:52:11;;;;;;;7.88;2.40;;;5.50;99.90;;;;;;5076376;28;20102;-62
2023/12/14 09:54:37;;;;;;;4.47;1.90;;;5.50;99.90;;;;;;5068271;28;20489;-62
2023/12/14 09:57:04;;;;;;;8.05;2.00;;;5.50;99.90;;;;;;5068701;28;20040;-62
2023/12/14 09:59:31;;;;;;;6.85;2.60;;;5.60;99.90;;;;;;5066969;28;20048;-61
2023/12/14 10:02:11;;;;;;;7.10;1.83;;;5.70;99.90;;;;;;5070009;28;20040;-61
2023/12/14 10:04:38;;;;;;;9.07;1.77;;;5.70;99.90;;;;;;5068235;28;20517;-62
2023/12/14 10:07:07;;;;;;;8.55;2.15;;;5.80;99.90;;;;;;5065275;28;20121;-62
2023/12/14 10:09:35;;;;;;;8.32;2.28;;;5.80;99.90;;;;;;5066533;28;20052;-62
2023/12/14 10:12:05;;;;;;;7.40;1.88;;;5.90;99.90;;;;;;5067237;28;20048;-62
2023/12/14 10:14:33;;;;;;;6.15;2.20;;;5.90;99.90;;;;;;5055970;28;20048;-62
2023/12/14 10:17:13;;;;;;;9.85;2.22;;;6.00;99.90;;;;;;5047290;28;20455;-62
2023/12/14 10:19:43;;;;;;;5.78;2.25;;;6.10;99.90;;;;;;5054450;28;20056;-62
2023/12/14 10:22:10;;;;;;;6.90;2.05;;;6.20;99.90;;;;;;5061790;28;20049;-63
2023/12/14 10:24:37;;;;;;;10.90;4.22;;;6.30;99.90;;;;;;5062442;28;20105;-62
2023/12/14 10:27:07;;;;;;;6.50;1.85;;;6.30;99.90;;;;;;5070260;28;20124;-62
2023/12/14 10:29:34;;;;;;;4.43;1.50;;;6.40;99.90;;;;;;5065299;28;20048;-62
2023/12/14 10:32:06;;;;;;;6.20;1.92;;;6.40;99.90;;;;;;5065631;28;20099;-62
2023/12/14 10:34:35;;;;;;;2.42;1.08;;;6.50;99.90;;;;;;5057973;28;20041;-63
2023/12/14 10:37:03;;;;;;;3.70;1.30;;;6.50;99.90;;;;;;5064818;28;20447;-62
2023/12/14 10:39:36;;;;;;;7.95;1.30;;;6.50;99.90;;;;;;5050267;28;20119;-62
2023/12/14 10:42:05;;;;;;;3.67;1.63;;;6.60;99.90;;;;;;5081602;28;20044;-61
2023/12/14 10:44:45;;;;;;;5.85;1.50;;;6.70;99.90;;;;;;5067307;28;20132;-62
2023/12/14 10:47:33;;;;;;;4.75;1.83;;;6.70;99.90;;;;;;5050373;28;20381;-62
2023/12/14 10:50:01;;;;;;;5.72;2.50;;;6.70;99.90;;;;;;5048215;28;20503;-63
2023/12/14 10:52:28;;;;;;;9.27;1.48;;;6.70;99.90;;;;;;5066259;28;20052;-64
2023/12/14 10:54:58;;;;;;;3.25;1.10;;;6.70;99.90;;;;;;5080902;28;20051;-63
2023/12/14 10:57:25;;;;;;;5.72;1.90;;;6.70;99.90;;;;;;5049011;28;20106;-63
2023/12/14 11:00:07;;;;;;;6.20;1.60;;;6.70;99.90;;;;;;5054517;28;20213;-62
2023/12/14 11:02:40;;;;;;;7.75;1.75;;;6.70;99.90;;;;;;5081317;28;20049;-64
2023/12/14 11:05:09;;;;;;;6.20;1.45;;;6.80;99.90;;;;;;5048449;28;20045;-62
2023/12/14 11:07:46;;;;;;;3.00;1.35;;;6.80;99.90;;;;;;5066457;28;20048;-63
2023/12/14 11:10:13;;;;;;;5.07;1.55;;;6.80;99.90;;;;;;5060200;28;20089;-63
2023/12/14 11:12:52;;;;;;;6.05;2.25;;;6.90;99.90;;;;;;5069277;28;20051;-62
2023/12/14 11:15:22;;;;;;;6.95;1.85;;;6.90;99.90;;;;;;5063457;28;20138;-63
2023/12/14 11:18:08;;;;;;;6.63;1.75;;;7.00;99.90;;;;;;5065583;28;20215;-63
2023/12/14 11:20:59;;;;;;;5.05;1.50;;;7.00;99.90;;;;;;5061750;28;20872;-63
2023/12/14 11:23:26;;;;;;;5.78;1.48;;;7.00;99.90;;;;;;5066485;28;20140;-62
2023/12/14 11:25:54;;;;;;;5.03;1.73;;;7.00;99.90;;;;;;5066696;28;20059;-63
2023/12/14 11:28:28;;;;;;;6.28;1.83;;;6.90;99.90;;;;;;5064029;28;20098;-63
2023/12/14 11:30:57;;;;;;;7.30;1.80;;;6.90;99.90;;;;;;5067601;28;20040;-63
2023/12/14 11:33:24;;;;;;;3.53;1.67;;;6.90;99.90;;;;;;5069032;28;20041;-67
2023/12/14 11:35:52;;;;;;;8.52;2.08;;;6.90;99.90;;;;;;5050231;28;20094;-64
2023/12/14 11:38:20;;;;;;;5.85;1.90;;;6.90;99.90;;;;;;5074546;28;20411;-63
2023/12/14 11:40:49;;;;;;;6.93;2.03;;;6.90;99.90;;;;;;5064640;28;20059;-64
2023/12/14 11:43:16;;;;;;;5.68;1.80;;;6.90;99.90;;;;;;5047844;28;20036;-64
2023/12/14 11:45:43;;;;;;;6.55;2.25;;;6.90;99.90;;;;;;5060628;28;20140;-64
2023/12/14 11:48:11;;;;;;;6.47;1.92;;;7.00;99.90;;;;;;5062797;28;20090;-64
2023/12/14 11:50:39;;;;;;;9.98;1.90;;;7.00;99.90;;;;;;5065541;28;20113;-67
2023/12/14 11:53:07;;;;;;;5.05;1.65;;;7.10;99.90;;;;;;5065357;28;20496;-63
2023/12/14 11:55:35;;;;;;;4.75;1.77;;;7.10;99.90;;;;;;5076272;28;20056;-63
2023/12/14 11:58:02;;;;;;;7.18;2.00;;;7.10;99.90;;;;;;5066850;28;20041;-63
2023/12/14 12:00:29;;;;;;;8.05;1.70;;;7.10;99.90;;;;;;5033367;28;20101;-64
2023/12/14 12:03:14;;;;;;;6.07;2.17;;;7.10;99.90;;;;;;5065944;28;20044;-63
2023/12/14 12:05:45;;;;;;;;;;;7.20;99.90;;;;;;5045301;28;20121;-62
2023/12/14 12:08:12;;;;;;;5.68;2.45;;;7.10;99.90;;;;;;5063967;28;19959;-63
2023/12/14 12:10:40;;;;;;;8.32;2.47;;;7.10;99.90;;;;;;5049758;28;20094;-63
2023/12/14 12:13:08;;;;;;;4.75;1.88;;;7.20;99.90;;;;;;5051884;28;20049;-62
2023/12/14 12:15:36;;;;;;;7.38;2.42;;;7.20;99.90;;;;;;5048308;28;20048;-63
2023/12/14 12:18:09;;;;;;;5.38;1.85;;;7.30;99.90;;;;;;5067898;28;20564;-62
2023/12/14 12:20:36;;;;;;;6.78;2.35;;;7.30;99.90;;;;;;5064169;28;20060;-63
2023/12/14 12:23:03;;;;;;;4.70;1.75;;;7.50;99.90;;;;;;5075033;28;20598;-63
2023/12/14 12:25:31;;;;;;;6.13;2.22;;;7.60;99.90;;;;;;5064546;28;20408;-62
2023/12/14 12:27:58;;;;;;;5.05;2.10;;;7.60;99.90;;;;;;5068801;28;20102;-63
2023/12/14 12:30:26;;;;;;;6.82;1.85;;;7.70;99.90;;;;;;5074546;28;20102;-62
2023/12/14 12:32:53;;;;;;;8.57;1.98;;;7.70;99.90;;;;;;5069335;28;20102;-65
2023/12/14 12:35:19;;;;;;;10.57;3.25;;;7.70;99.90;;;;;;5063788;28;20075;-64
2023/12/14 12:37:53;;;;;;;14.57;2.70;;;7.60;99.90;;;;;;5065841;28;20557;-67
2023/12/14 12:40:25;;;;;;;4.80;1.95;;;7.50;99.90;;;;;;5066538;28;20072;-62
2023/12/14 12:42:52;;;;;;;9.40;4.03;;;7.50;99.90;;;;;;5074925;28;20059;-62
2023/12/14 12:45:22;;;;;;;7.30;2.35;;;7.40;99.90;;;;;;5052809;28;20513;-62
2023/12/14 12:47:49;;;;;;;11.70;3.40;;;7.40;99.90;;;;;;5073834;28;20059;-63
2023/12/14 12:50:17;;;;;;;4.35;1.42;;;7.40;99.90;;;;;;5064824;28;20079;-62
2023/12/14 12:52:45;;;;;;;12.80;3.25;;;7.40;99.90;;;;;;5069422;28;20070;-62
2023/12/14 12:55:13;;;;;;;6.65;2.15;;;7.40;99.90;;;;;;5068925;28;20138;-62